Волжское ЛПУМГ

Карта отелей и гостиниц, располагающихся рядом с аэропортом Волжское ЛПУМГ :

Волжское ЛПУМГ
Помары
Марий Эл 55° 58' 5.2212" N, 48° 25' 26.4" E
Волжское ЛПУМГ
Помары
Марий Эл 55° 58' 5.2212" N, 48° 25' 26.4" E
Код аэродрома ИКАО
HES3
Код аэродрома RU
ХЕС3
Координаты
N55.96812° E048.42400°
Превышение над уровнем моря
97
Основная полоса
01/19
Курс магнитный
006,1/186,1
Длина основной ВПП
16
Ширина основной ВПП
12
Покрытие основной ВПП
Твёрдое (бетон)
Освещение ВПП
Постоянное
Тип: 
Вертодром
Класс аэродрома: 
Принадлежность: 
ГА
Статус: 
Действующий
Сайт: 
E-mail аэродрома: 
Страна: 
Россия
Регион: 
Марий Эл
Город: 
Помары
Дополнительная информация: 
Владелец ПП: нет данных.

Найти трансфер

С помощью этой формы Вы можете найти трансфер из аэропорта Волжское ЛПУМГ в город, аэропорт или вокзал:

Карта места

Javascript is required to view this map.

Погода в аэропортах:

Авиационная погода в Орске

Регион: 
Погода METAR: 
UWOR 271200Z 18008MPS 9999 DRSN OVC021 M07/M10 Q1005 R25/820242 NOSIG RMK QFE731/0974
Время наблюдения
2021-02-27T12:00:00Z
Температура C
-7.0
Точка росы
-10.0
Направление ветра
180
Скорость ветра (узлы)
16
Метео видимость
6.21
Явления погоды
DRSN
Условия полета
MVFR
Аэропорт подробнее: 

Авиационная погода в Берлевоге

Регион: 
Погода METAR: 
ENBV 262050Z 30020KT 9999 -SHSN FEW012 BKN020 01/M03 Q1007
Время наблюдения
2021-02-26T20:50:00Z
Температура C
1.0
Точка росы
-3.0
Направление ветра
300
Скорость ветра (узлы)
20
Метео видимость
6.21
Явления погоды
-SHSN
Условия полета
MVFR

Авиационная погода в Савонлинна

Регион: 
Погода METAR: 
EFSA 271150Z AUTO 33009KT 9999 -SHSN OVC010 01/M01 Q1017
Время наблюдения
2021-02-27T11:50:00Z
Температура C
1.0
Точка росы
-1.0
Направление ветра
330
Скорость ветра (узлы)
9
Метео видимость
6.21
Явления погоды
-SHSN
Условия полета
MVFR

Авиационная погода в Ульяновске

Регион: 
Погода METAR: 
UWLW 271200Z 01007MPS 2400 -SN OVC006 M09/M10 Q0998 R20/490535 NOSIG RMK QFE743
Время наблюдения
2021-02-27T12:00:00Z
Температура C
-9.0
Точка росы
-10.0
Направление ветра
10
Скорость ветра (узлы)
14
Метео видимость
1.49
Явления погоды
-SN
Условия полета
IFR
Аэропорт подробнее: